»·PEaware :: WAT380 KUKI-KCNO

WAT380 :: KUKI-KCNO

FLIGHT INFORMATION

Flight Status: Arrived
Operator:
Walker Air Transport
More flights by this operator :: More flights under this callsign
Pilot: Spencer M. (27733)
Aircraft: BEECH AIRCRAFT PREMIER
(PRM1)
More flights by this aircraft type
Origin: KUKI Ukiah Mun
United States
Destination: KCNO Chino
United States
More flights between these airports :: More routes between these airports
Route: RYPAX1 GETER OAK J1 AVE J6 PMD ZIGGY7
File this flight plan on PilotEdge
Remarks:
Altitude:
(Current/Filed)
35,000ft
Speed:
(Current/Filed)
400kts
Departed: 10-Aug-21 07:09 PM
Arrived: 10-Aug-21 08:32 PM
Distance/Time
Traveled:
409nm/1:23
Distance/Time
To Go:
Arrived

Flight Plot

Page will automatically refresh every two minutes.

Flight plan parsing failed; only flown route is shown


Map Options




Map Legend


Flown Route
Filed Route
Departure Airport
Arrival Airport
Navaid (VOR, NDB)
Fix

Horizontal Profiles

Position Reports

Time Latitude Longitude Heading Altitude Ground
Speed
10-Aug-21 18:53 39.129139 -123.203200 359 625ft 0kts
10-Aug-21 18:54 39.129139 -123.203200 359 625ft 0kts
10-Aug-21 18:55 39.129139 -123.203200 359 625ft 0kts
10-Aug-21 18:56 39.129139 -123.203200 359 625ft 0kts
10-Aug-21 18:57 39.129139 -123.203200 359 625ft 0kts
10-Aug-21 18:58 39.129139 -123.203200 359 625ft 0kts
10-Aug-21 18:59 39.129139 -123.203200 359 625ft 0kts
10-Aug-21 19:00 39.129139 -123.203200 359 625ft 0kts
10-Aug-21 19:01 39.130812 -123.203243 348 625ft 9kts
10-Aug-21 19:02 39.133187 -123.203642 44 626ft 0kts
10-Aug-21 19:03 39.133187 -123.203642 44 626ft 0kts
10-Aug-21 19:04 39.133187 -123.203642 44 626ft 0kts
10-Aug-21 19:05 39.133187 -123.203642 44 626ft 0kts
10-Aug-21 19:06 39.133187 -123.203642 44 626ft 0kts
10-Aug-21 19:07 39.133365 -123.203185 78 626ft 6kts
10-Aug-21 19:08 39.113134 -123.197467 167 859ft 158kts
10-Aug-21 19:09 39.067825 -123.178268 141 3510ft 175kts
10-Aug-21 19:10 39.025090 -123.136783 144 5625ft 215kts
10-Aug-21 19:11 38.972018 -123.087009 149 7355ft 256kts
10-Aug-21 19:12 38.903605 -123.057739 163 9558ft 263kts
10-Aug-21 19:13 38.833013 -123.031755 161 11605ft 267kts
10-Aug-21 19:14 38.760227 -123.004800 161 13216ft 291kts
10-Aug-21 19:15 38.680368 -122.966292 147 14228ft 312kts
10-Aug-21 19:16 38.605820 -122.907574 147 15554ft 318kts
10-Aug-21 19:17 38.530042 -122.847687 147 16769ft 322kts
10-Aug-21 19:18 38.450588 -122.785196 147 16906ft 351kts
10-Aug-21 19:19 38.365862 -122.718801 147 17410ft 355kts
10-Aug-21 19:20 38.283406 -122.654455 147 18756ft 342kts
10-Aug-21 19:21 38.221262 -122.606029 148 19904ft 334kts
10-Aug-21 19:22 38.142383 -122.544692 148 21179ft 334kts
10-Aug-21 19:23 38.063269 -122.483328 149 22361ft 335kts
10-Aug-21 19:24 37.983869 -122.421889 149 23542ft 335kts
10-Aug-21 19:25 37.903491 -122.359849 149 24482ft 342kts
10-Aug-21 19:26 37.821637 -122.296859 150 25378ft 348kts
10-Aug-21 19:27 37.738659 -122.232606 147 26484ft 345kts
10-Aug-21 19:28 37.672645 -122.163791 140 29374ft 292kts
10-Aug-21 19:29 37.610107 -122.093857 140 30317ft 305kts
10-Aug-21 19:30 37.545717 -122.022004 140 30952ft 317kts
10-Aug-21 19:31 37.476456 -121.944959 140 30945ft 346kts
10-Aug-21 19:32 37.402303 -121.862662 140 30938ft 366kts
10-Aug-21 19:33 37.324657 -121.776736 140 30937ft 379kts
10-Aug-21 19:34 37.244482 -121.688289 140 30947ft 389kts
10-Aug-21 19:35 37.162472 -121.598094 140 30979ft 397kts
10-Aug-21 19:36 37.078905 -121.506458 140 31001ft 403kts
10-Aug-21 19:37 36.994247 -121.413918 140 31001ft 407kts
10-Aug-21 19:38 36.908661 -121.320655 141 30998ft 410kts
10-Aug-21 19:39 36.822423 -121.226981 141 31000ft 411kts
10-Aug-21 19:40 36.735895 -121.133281 141 30979ft 413kts
10-Aug-21 19:41 36.649261 -121.039759 141 30944ft 414kts
10-Aug-21 19:42 36.562135 -120.945994 141 30914ft 415kts
10-Aug-21 19:43 36.474913 -120.852418 141 30917ft 415kts
10-Aug-21 19:44 36.387570 -120.759005 142 30918ft 415kts
10-Aug-21 19:45 36.300373 -120.666032 141 30918ft 415kts
10-Aug-21 19:46 36.212600 -120.572734 142 30918ft 416kts
10-Aug-21 19:47 36.124973 -120.479875 142 30919ft 416kts
10-Aug-21 19:48 36.036834 -120.386759 142 30919ft 417kts
10-Aug-21 19:49 35.948664 -120.293903 143 30928ft 417kts
10-Aug-21 19:50 35.860562 -120.201398 143 30953ft 417kts
10-Aug-21 19:51 35.772382 -120.109092 143 30932ft 418kts
10-Aug-21 19:52 35.683683 -120.016524 142 30900ft 419kts
10-Aug-21 19:53 35.612109 -119.902983 122 30891ft 426kts
10-Aug-21 19:54 35.554201 -119.776109 121 30891ft 427kts
10-Aug-21 19:55 35.496168 -119.649494 121 30901ft 427kts
10-Aug-21 19:56 35.437855 -119.523191 121 30934ft 426kts
10-Aug-21 19:57 35.379266 -119.396810 121 30968ft 426kts
10-Aug-21 19:58 35.320702 -119.270954 122 30979ft 426kts
10-Aug-21 19:59 35.261870 -119.144986 122 30980ft 426kts
10-Aug-21 20:00 35.202991 -119.019377 122 30986ft 426kts
10-Aug-21 20:01 35.144013 -118.894007 122 31079ft 425kts
10-Aug-21 20:02 35.085837 -118.770182 122 31170ft 418kts
10-Aug-21 20:03 35.027486 -118.648027 124 31174ft 415kts
10-Aug-21 20:04 34.958061 -118.536153 132 30197ft 411kts
10-Aug-21 20:05 34.887799 -118.434093 132 28193ft 381kts
10-Aug-21 20:06 34.821612 -118.338190 131 26279ft 359kts
10-Aug-21 20:07 34.758381 -118.246629 131 24485ft 354kts
10-Aug-21 20:08 34.701045 -118.163814 130 22854ft 351kts
10-Aug-21 20:09 34.639541 -118.074112 126 21040ft 338kts
10-Aug-21 20:10 34.592474 -117.978551 119 19117ft 325kts
10-Aug-21 20:11 34.549390 -117.884067 118 17098ft 317kts
10-Aug-21 20:12 34.507509 -117.792607 118 14755ft 302kts
10-Aug-21 20:13 34.467886 -117.706427 117 14003ft 287kts
10-Aug-21 20:14 34.428874 -117.621639 117 14000ft 292kts
10-Aug-21 20:15 34.388738 -117.534575 117 14000ft 300kts
10-Aug-21 20:16 34.348375 -117.447406 117 13996ft 290kts
10-Aug-21 20:17 34.309976 -117.365462 123 13995ft 274kts
10-Aug-21 20:18 34.242703 -117.324973 164 13742ft 282kts
10-Aug-21 20:19 34.168339 -117.302796 164 12380ft 268kts
10-Aug-21 20:20 34.100137 -117.312434 223 10675ft 256kts
10-Aug-21 20:21 34.036123 -117.323001 171 8899ft 243kts
10-Aug-21 20:22 33.971062 -117.310855 171 7011ft 231kts
10-Aug-21 20:23 33.909002 -117.301120 193 4988ft 220kts
10-Aug-21 20:24 33.909525 -117.353839 311 3993ft 177kts
10-Aug-21 20:25 33.944002 -117.398526 311 3888ft 187kts
10-Aug-21 20:26 33.975687 -117.444449 283 3411ft 170kts
10-Aug-21 20:27 33.977565 -117.498581 267 2765ft 158kts
10-Aug-21 20:28 33.976264 -117.550459 269 2059ft 143kts
10-Aug-21 20:29 33.976085 -117.595481 271 1285ft 125kts
10-Aug-21 20:30 33.975790 -117.636589 270 642ft 113kts
10-Aug-21 20:31 33.976768 -117.644018 48 625ft 1kts
10-Aug-21 20:32 33.976855 -117.641689 89 629ft 13kts

Navigation Log

Ident Type
Flight plan parsing failed, navigation log unavailable